This is the latest recevied weather packets stored in our database for station/object W5HKR. If no packets are shown the sender has not sent any weather packets the latest 10 day(s).
| Time | Temp. | Humidity | Pressure | Rain* | Wind** | Luminosity | Snow |
|---|---|---|---|---|---|---|---|
| 1777781027 | 13.89° C | 78% | 993.6 hPa | 0 mm | - | - | - |
| 1777780997 | 18.33° C | 91% | 990.6 hPa | 0 mm | - | - | - |
| 1777780697 | 14.44° C | 77% | 993.2 hPa | 0 mm | - | - | - |
| 1777780398 | 18.33° C | 91% | 990.6 hPa | 0 mm | - | - | - |
| 1777780097 | 18.33° C | 91% | 990.6 hPa | 0 mm | - | - | - |
| 1777779947 | 18.33° C | 91% | 990.6 hPa | 0 mm | - | - | - |
| 1777779796 | 18.33° C | 91% | 990.6 hPa | 0 mm | - | - | - |
| 1777779498 | 18.33° C | 91% | 990.6 hPa | 0 mm | - | - | - |
| 1777779196 | 15° C | 74% | 993.2 hPa | 0 mm | - | - | - |
| 1777778868 | 15° C | 74% | 992.9 hPa | 0 mm | - | - | - |
| 1777778598 | 15° C | 73% | 992.9 hPa | 0 mm | - | - | - |
| 1777778296 | 18.33° C | 91% | 990.6 hPa | 0 mm | - | - | - |
| 1777777998 | 15.56° C | 72% | 993.2 hPa | 0 mm | - | - | - |
| 1777777788 | 18.33° C | 91% | 990.6 hPa | 0 mm | - | - | - |
| 1777777696 | 15.56° C | 70% | 993.3 hPa | 0 mm | - | - | - |
| 1777777398 | 15.56° C | 70% | 992.7 hPa | 0 mm | - | - | - |
| 1777777097 | 18.33° C | 91% | 990.6 hPa | 0 mm | - | - | - |
| 1777776798 | 18.33° C | 91% | 990.6 hPa | 0 mm | - | - | - |
| 1777776709 | 18.33° C | 91% | 990.6 hPa | 0 mm | - | - | - |
| 1777776498 | 18.33° C | 91% | 990.6 hPa | 0 mm | - | - | - |
| 1777776198 | 16.11° C | 67% | 992.5 hPa | 0 mm | - | - | - |
| 1777775898 | 18.33° C | 91% | 990.6 hPa | 0 mm | - | - | - |
| 1777775628 | 18.33° C | 91% | 990.6 hPa | 0 mm | - | - | - |
| 1777775597 | 16.67° C | 65% | 992.5 hPa | 0 mm | - | - | - |
| 1777775298 | 16.67° C | 64% | 992.1 hPa | 0 mm | - | - | - |
* Rain latest hour (hover to see other rain measurements)
** Current wind speed in m/s (hover to see current wind gust speed)